Time;durP1;ratioP1;P1;durP2;ratioP2;P2;SDS_P1;SDS_P2;PMS_P1;PMS_P2;Temp;Humidity;BMP_temperature;BMP_pressure;BME280_temperature;BME280_humidity;BME280_pressure;Samples;Min_cycle;Max_cycle;Signal;HPM_P1;HPM_P2
2023/01/07 00:01:16;;;;;;;22.73;13.50;;;;;;;0.72;84.31;96227.09;1762537;81;21042;-70
2023/01/07 00:03:45;;;;;;;37.47;19.67;;;;;;;0.76;84.28;96221.16;1762736;81;21042;-70
2023/01/07 00:06:16;;;;;;;36.63;18.00;;;;;;;0.75;84.03;96220.68;1762566;81;21084;-70
2023/01/07 00:08:46;;;;;;;26.63;15.77;;;;;;;0.71;84.50;96226.64;1762594;81;21045;-70
2023/01/07 00:11:16;;;;;;;24.67;14.10;;;;;;;0.66;84.86;96226.92;1762503;81;21086;-70
2023/01/07 00:13:44;;;;;;;28.17;16.40;;;;;;;0.76;85.41;96221.16;1762707;81;20994;-70
2023/01/07 00:16:14;;;;;;;28.80;17.57;;;;;;;0.79;85.24;96221.25;1762695;81;21433;-70
2023/01/07 00:18:42;;;;;;;28.23;15.47;;;;;;;0.85;85.31;96218.39;1762528;81;21035;-70
2023/01/07 00:21:12;;;;;;;25.57;15.50;;;;;;;0.93;85.19;96224.22;1762455;81;21528;-70
2023/01/07 00:23:41;;;;;;;32.00;16.97;;;;;;;0.94;84.69;96225.58;1762485;81;21481;-70
2023/01/07 00:26:12;;;;;;;36.33;18.97;;;;;;;0.91;84.48;96230.70;1762267;81;21034;-70
2023/01/07 00:28:41;;;;;;;27.50;17.00;;;;;;;0.88;84.34;96216.30;1761826;81;21070;-69
2023/01/07 00:31:18;;;;;;;30.30;17.23;;;;;;;0.85;84.66;96214.91;1762510;81;21033;-70
2023/01/07 00:36:26;;;;;;;23.77;13.27;;;;;;;0.75;84.83;96191.69;1762714;81;21058;-70
2023/01/07 00:39:04;;;;;;;21.87;14.13;;;;;;;0.73;85.33;96197.28;1762553;81;21045;-69
2023/01/07 00:41:31;;;;;;;28.17;16.30;;;;;;;0.79;85.49;96198.73;1762536;81;21014;-70
2023/01/07 00:43:58;;;;;;;20.57;12.73;;;;;;;0.83;85.29;96207.09;1762567;81;21118;-70
2023/01/07 00:46:25;;;;;;;24.83;13.33;;;;;;;0.83;84.61;96207.48;1762419;81;21022;-70
2023/01/07 00:48:51;;;;;;;29.47;17.83;;;;;;;0.80;84.62;96211.30;1762558;81;21010;-70
2023/01/07 00:51:19;;;;;;;35.37;20.07;;;;;;;0.90;85.27;96212.03;1762477;81;21010;-70
2023/01/07 00:53:46;;;;;;;37.87;21.50;;;;;;;0.98;84.94;96213.54;1762484;81;20998;-70
2023/01/07 00:56:15;;;;;;;31.97;18.37;;;;;;;0.96;84.76;96207.02;1762612;81;21063;-70
2023/01/07 00:58:41;;;;;;;33.50;18.77;;;;;;;1.04;85.18;96209.41;1762556;81;20987;-70
2023/01/07 01:01:09;;;;;;;29.43;16.17;;;;;;;1.02;84.86;96214.98;1762405;81;21556;-70
2023/01/07 01:03:37;;;;;;;24.70;13.70;;;;;;;1.01;84.89;96213.23;1762577;81;21022;-69
2023/01/07 01:06:09;;;;;;;21.87;12.97;;;;;;;0.97;84.19;96208.77;1762372;81;21129;-70
2023/01/07 01:08:35;;;;;;;22.73;13.07;;;;;;;0.95;84.78;96207.84;1762586;81;21010;-70
2023/01/07 01:11:08;;;;;;;21.13;12.43;;;;;;;1.03;84.85;96208.96;1762275;81;21137;-70
2023/01/07 01:13:36;;;;;;;19.27;11.17;;;;;;;1.04;84.93;96203.34;1762793;81;21602;-70
2023/01/07 01:16:10;;;;;;;16.47;10.17;;;;;;;1.01;84.69;96192.44;1762477;81;21712;-69
2023/01/07 01:18:37;;;;;;;15.90;10.57;;;;;;;1.02;84.49;96205.01;1761933;81;20991;-69
2023/01/07 01:21:07;;;;;;;15.90;9.43;;;;;;;0.99;84.63;96203.63;1762376;81;21062;-69
2023/01/07 01:23:34;;;;;;;13.97;8.53;;;;;;;1.08;85.17;96202.56;1765028;81;21034;-69
2023/01/07 01:26:07;;;;;;;15.27;8.57;;;;;;;1.15;84.89;96199.30;1766253;81;21041;-69
2023/01/07 01:28:34;;;;;;;11.35;7.80;;;;;;;1.24;85.10;96196.09;1766458;81;21014;-70
2023/01/07 01:31:01;;;;;;;12.03;7.73;;;;;;;1.21;84.29;96199.88;1766417;81;21055;-69
2023/01/07 01:33:30;;;;;;;16.77;9.83;;;;;;;1.24;84.66;96200.86;1766091;81;21058;-69
2023/01/07 01:35:56;;;;;;;18.20;10.60;;;;;;;1.25;84.24;96203.91;1766045;81;21038;-70
2023/01/07 01:38:23;;;;;;;16.00;10.20;;;;;;;1.26;84.23;96211.28;1766288;81;21005;-69
2023/01/07 01:40:50;;;;;;;11.30;7.57;;;;;;;1.24;84.32;96206.48;1766089;81;21101;-69
2023/01/07 01:43:28;;;;;;;13.97;8.17;;;;;;;1.20;84.76;96205.50;1766160;81;21507;-69
2023/01/07 01:45:56;;;;;;;14.80;8.97;;;;;;;1.15;84.76;96202.33;1763026;81;21027;-69
2023/01/07 01:48:23;;;;;;;16.03;9.73;;;;;;;1.07;85.03;96205.59;1766432;81;21010;-69
2023/01/07 01:50:52;;;;;;;16.07;9.87;;;;;;;1.04;85.34;96201.61;1736200;81;21018;-69
2023/01/07 01:53:26;;;;;;;16.10;9.27;;;;;;;1.09;85.43;96205.64;1766381;81;21034;-69
2023/01/07 01:55:58;;;;;;;17.30;11.07;;;;;;;1.03;85.27;96205.45;1766391;81;21022;-69
2023/01/07 01:58:36;;;;;;;16.40;9.97;;;;;;;1.04;85.00;96203.34;1766133;81;21022;-69
2023/01/07 02:01:03;;;;;;;14.00;8.07;;;;;;;1.14;85.48;96193.66;1765319;81;21003;-69
2023/01/07 02:03:34;;;;;;;16.70;10.23;;;;;;;1.16;85.85;96194.58;1766230;81;21002;-69
2023/01/07 02:06:02;;;;;;;12.67;8.17;;;;;;;1.16;85.43;96195.88;1766181;81;21022;-69
2023/01/07 02:08:29;;;;;;;5.27;3.77;;;;;;;1.23;85.85;96197.78;1766389;81;21006;-69
2023/01/07 02:11:12;;;;;;;4.73;3.00;;;;;;;1.23;85.69;96202.11;1766400;81;21114;-69
2023/01/07 02:14:30;;;;;;;13.50;8.17;;;;;;;1.26;85.67;96200.48;1766322;81;20990;-69
2023/01/07 02:17:17;;;;;;;12.07;7.23;;;;;;;1.26;86.10;96206.98;1706427;84;21555;-69
2023/01/07 02:20:11;;;;;;;12.20;7.57;;;;;;;1.30;85.82;96189.73;1705817;83;21572;-69
2023/01/07 02:23:01;;;;;;;7.10;3.93;;;;;;;1.33;86.35;96193.71;1746409;80;21030;-69
2023/01/07 02:26:01;;;;;;;4.47;3.10;;;;;;;1.33;86.27;96197.61;1803906;79;21026;-69
2023/01/07 02:28:51;;;;;;;4.83;3.17;;;;;;;1.44;86.44;96184.49;1803113;79;20994;-69
2023/01/07 02:32:00;;;;;;;6.83;3.67;;;;;;;1.54;86.29;96184.31;1804215;79;21018;-69
2023/01/07 02:34:44;;;;;;;10.63;5.43;;;;;;;1.53;85.90;96178.63;1804555;79;21128;-69
2023/01/07 02:37:40;;;;;;;14.67;9.50;;;;;;;1.65;86.75;96175.05;1804352;79;21023;-69
2023/01/07 02:40:45;;;;;;;13.53;7.50;;;;;;;1.75;86.62;96177.89;1803869;79;21062;-69
2023/01/07 02:43:38;;;;;;;9.50;6.80;;;;;;;1.69;85.88;96165.62;1804060;79;21444;-69
2023/01/07 02:46:22;;;;;;;10.60;6.73;;;;;;;1.67;86.06;96173.80;1804301;79;21025;-69
2023/01/07 02:48:51;;;;;;;7.83;4.03;;;;;;;1.65;86.27;96168.55;1775254;79;21491;-69
2023/01/07 02:51:18;;;;;;;8.93;5.40;;;;;;;1.62;86.03;96163.70;1804131;79;20963;-69
2023/01/07 02:53:47;;;;;;;7.57;4.80;;;;;;;1.60;86.20;96166.25;1804279;79;21010;-69
2023/01/07 02:56:44;;;;;;;7.00;4.70;;;;;;;1.64;86.40;96160.72;1775026;79;20986;-69
2023/01/07 02:59:40;;;;;;;6.23;4.37;;;;;;;1.75;86.75;96164.88;1804302;79;20998;-70
2023/01/07 03:02:21;;;;;;;5.20;3.70;;;;;;;1.77;86.06;96164.08;1804338;79;21029;-69
2023/01/07 03:05:05;;;;;;;7.07;4.10;;;;;;;1.78;86.25;96174.92;1749550;79;21084;-69
2023/01/07 03:07:52;;;;;;;9.30;4.67;;;;;;;1.78;86.08;96168.84;1804237;79;21017;-69
2023/01/07 03:10:39;;;;;;;7.43;4.60;;;;;;;1.67;86.07;96169.47;1804298;79;21519;-70
2023/01/07 03:13:16;;;;;;;7.60;4.37;;;;;;;1.67;86.48;96159.06;1804391;79;21030;-69
2023/01/07 03:15:51;;;;;;;9.33;5.93;;;;;;;1.60;87.22;96151.95;1804270;79;21001;-69
2023/01/07 03:18:23;;;;;;;12.43;7.70;;;;;;;1.56;87.28;96147.92;1766876;79;21010;-69
2023/01/07 03:20:55;;;;;;;11.60;7.10;;;;;;;1.52;87.39;96143.08;1804073;79;21077;-70
2023/01/07 03:23:25;;;;;;;9.87;6.60;;;;;;;1.49;87.18;96158.61;1801336;79;21053;-69
2023/01/07 03:25:54;;;;;;;10.07;6.50;;;;;;;1.44;87.22;96148.09;1795621;80;21472;-69
2023/01/07 03:28:26;;;;;;;16.07;7.23;;;;;;;1.40;86.73;96139.73;1795490;80;20990;-69
2023/01/07 03:30:55;;;;;;;17.20;9.27;;;;;;;1.39;86.71;96138.42;1795609;80;21048;-69
2023/01/07 03:33:43;;;;;;;16.33;9.53;;;;;;;1.35;86.92;96141.77;1795737;80;21459;-70
2023/01/07 03:36:14;;;;;;;12.67;8.03;;;;;;;1.36;87.59;96138.31;1795347;80;21015;-70
2023/01/07 03:38:43;;;;;;;16.27;8.87;;;;;;;1.41;87.90;96132.81;1795760;80;21471;-69
2023/01/07 03:42:38;;;;;;;12.70;8.20;;;;;;;1.46;87.93;96129.51;1795602;80;21097;-69
2023/01/07 03:43:40;;;;;;;12.80;7.77;;;;;;;1.49;87.65;96123.50;1790796;80;21005;-70
2023/01/07 03:46:07;;;;;;;15.23;8.83;;;;;;;1.45;87.04;96121.66;1795574;80;21069;-69
2023/01/07 03:48:33;;;;;;;11.90;7.77;;;;;;;1.45;87.46;96123.83;1795370;80;21654;-69
2023/01/07 03:51:00;;;;;;;12.40;7.57;;;;;;;1.45;87.87;96119.06;1795355;80;21006;-70
2023/01/07 03:53:27;;;;;;;12.20;7.93;;;;;;;1.48;87.93;96114.80;1795514;80;21018;-70
2023/01/07 03:55:53;;;;;;;14.50;8.00;;;;;;;1.49;88.00;96119.61;1795493;80;20999;-70
2023/01/07 03:58:20;;;;;;;12.13;7.57;;;;;;;1.49;87.69;96117.88;1795500;80;20999;-69
2023/01/07 04:00:47;;;;;;;12.83;8.07;;;;;;;1.45;87.62;96114.73;1795460;80;21030;-69
2023/01/07 04:03:15;;;;;;;10.93;7.63;;;;;;;1.48;88.02;96114.80;1795633;80;20951;-70
2023/01/07 04:05:44;;;;;;;10.37;6.60;;;;;;;1.48;88.09;96110.02;1795396;80;21015;-70
2023/01/07 04:08:11;;;;;;;10.77;6.73;;;;;;;1.55;87.96;96108.47;1795510;80;21030;-69
2023/01/07 04:10:38;;;;;;;9.03;6.10;;;;;;;1.58;88.31;96111.13;1795415;80;21497;-69
2023/01/07 04:13:05;;;;;;;9.27;6.23;;;;;;;1.61;88.00;96101.67;1795597;80;21094;-69
2023/01/07 04:15:32;;;;;;;9.83;6.10;;;;;;;1.65;88.18;96110.44;1795462;80;21010;-70
2023/01/07 04:17:59;;;;;;;10.63;6.70;;;;;;;1.61;88.07;96105.57;1795622;80;21006;-70
2023/01/07 04:20:25;;;;;;;10.03;6.40;;;;;;;1.66;88.37;96101.78;1795343;80;21033;-72
2023/01/07 04:22:53;;;;;;;12.60;7.70;;;;;;;1.69;88.19;96098.86;1795490;80;21484;-70
2023/01/07 04:25:20;;;;;;;13.93;9.77;;;;;;;1.74;87.98;96100.27;1795376;80;20994;-70
2023/01/07 04:27:47;;;;;;;16.43;10.93;;;;;;;1.82;88.51;96095.24;1795235;80;21035;-69
2023/01/07 04:30:14;;;;;;;10.77;7.23;;;;;;;1.91;88.41;96098.91;1795570;80;21010;-69
2023/01/07 04:32:41;;;;;;;10.23;6.97;;;;;;;1.94;88.38;96104.20;1795291;80;21034;-70
2023/01/07 04:35:08;;;;;;;17.53;10.10;;;;;;;1.97;88.28;96102.09;1795427;80;21006;-69
2023/01/07 04:37:35;;;;;;;16.63;8.93;;;;;;;1.93;87.57;96101.13;1795356;80;21540;-70
2023/01/07 04:40:02;;;;;;;13.20;8.70;;;;;;;1.95;88.02;96102.05;1795427;80;21002;-70
2023/01/07 04:42:30;;;;;;;17.47;9.23;;;;;;;1.93;87.36;96108.94;1795065;80;21034;-70
2023/01/07 04:44:57;;;;;;;11.43;7.30;;;;;;;1.85;86.98;96115.69;1764570;80;21014;-69
2023/01/07 04:47:24;;;;;;;8.17;5.97;;;;;;;1.90;87.64;96108.00;1795650;80;21074;-69
2023/01/07 04:49:50;;;;;;;8.03;5.63;;;;;;;1.90;87.72;96117.98;1795656;80;20994;-69
2023/01/07 04:52:17;;;;;;;6.60;4.60;;;;;;;1.93;88.08;96115.44;1795172;80;21058;-70
2023/01/07 04:54:44;;;;;;;6.57;4.87;;;;;;;1.93;87.57;96114.14;1795432;80;21013;-69
2023/01/07 04:57:11;;;;;;;7.23;4.87;;;;;;;1.93;88.10;96114.56;1795537;80;21003;-70
2023/01/07 04:59:38;;;;;;;8.10;5.73;;;;;;;1.99;88.26;96123.84;1795438;80;21002;-70
2023/01/07 05:02:05;;;;;;;7.33;5.43;;;;;;;1.95;87.91;96125.90;1795397;80;21500;-70
2023/01/07 05:04:31;;;;;;;10.67;5.50;;;;;;;1.99;88.25;96129.04;1795515;80;21014;-69
2023/01/07 05:06:58;;;;;;;7.97;6.00;;;;;;;2.06;88.04;96131.34;1795350;80;21021;-70
2023/01/07 05:09:25;;;;;;;9.77;5.73;;;;;;;2.01;87.48;96131.23;1795535;80;20999;-70
2023/01/07 05:11:52;;;;;;;8.83;5.57;;;;;;;2.10;88.25;96135.78;1795525;80;21042;-70
2023/01/07 05:14:18;;;;;;;8.27;5.77;;;;;;;2.20;88.40;96139.05;1795453;80;21527;-71
2023/01/07 05:16:46;;;;;;;9.00;5.60;;;;;;;2.23;88.12;96141.71;1764472;80;21468;-71
2023/01/07 05:19:13;;;;;;;7.37;5.40;;;;;;;2.19;87.46;96146.38;1795555;80;21046;-71
2023/01/07 05:21:41;;;;;;;11.57;5.97;;;;;;;2.26;87.89;96153.49;1795097;80;21524;-71
2023/01/07 05:24:09;;;;;;;9.37;7.30;;;;;;;2.26;88.08;96154.80;1795229;80;20998;-71
2023/01/07 05:26:35;;;;;;;21.27;14.60;;;;;;;2.30;87.91;96158.36;1795325;80;21554;-71
2023/01/07 05:29:02;;;;;;;10.97;6.97;;;;;;;2.28;87.88;96153.11;1795535;80;21023;-71
2023/01/07 05:31:29;;;;;;;9.07;5.80;;;;;;;2.21;87.28;96150.34;1795381;80;21500;-71
2023/01/07 05:33:56;;;;;;;10.80;6.73;;;;;;;2.21;87.64;96152.94;1795487;80;20963;-71
2023/01/07 05:36:23;;;;;;;10.17;7.47;;;;;;;2.16;87.68;96155.43;1795321;80;20971;-71
2023/01/07 05:38:49;;;;;;;13.23;8.73;;;;;;;2.15;87.87;96154.98;1795562;80;21013;-71
2023/01/07 05:41:16;;;;;;;18.03;10.77;;;;;;;2.13;87.95;96156.24;1795048;80;21030;-71
2023/01/07 05:43:43;;;;;;;49.70;17.17;;;;;;;2.11;87.76;96157.05;1795538;80;20986;-71
2023/01/07 05:46:10;;;;;;;44.73;18.53;;;;;;;2.00;87.82;96148.12;1795468;80;20955;-71
2023/01/07 05:48:36;;;;;;;19.77;10.37;;;;;;;1.93;87.69;96141.89;1795456;80;21034;-71
2023/01/07 05:51:03;;;;;;;14.13;7.87;;;;;;;1.90;87.67;96147.03;1795284;80;21010;-71
2023/01/07 05:53:30;;;;;;;15.17;9.57;;;;;;;1.87;87.65;96146.97;1795516;80;20979;-71
2023/01/07 05:55:59;;;;;;;17.50;10.40;;;;;;;1.76;88.19;96157.52;1795425;80;21010;-71
2023/01/07 05:58:26;;;;;;;19.40;10.10;;;;;;;1.73;87.75;96147.92;1795423;80;20982;-71
2023/01/07 06:00:54;;;;;;;13.33;8.23;;;;;;;1.76;88.02;96163.59;1795490;80;20975;-71
2023/01/07 06:03:21;;;;;;;14.53;7.67;;;;;;;1.78;88.00;96151.51;1795356;80;20959;-71
2023/01/07 06:05:48;;;;;;;10.77;7.10;;;;;;;1.78;87.77;96159.31;1795450;80;21528;-71
2023/01/07 06:08:16;;;;;;;9.60;7.30;;;;;;;1.77;87.85;96160.60;1795262;80;21054;-71
2023/01/07 06:10:43;;;;;;;10.67;6.43;;;;;;;1.83;88.16;96171.14;1795433;80;21006;-71
2023/01/07 06:13:10;;;;;;;7.33;5.70;;;;;;;1.83;88.25;96169.84;1795484;80;20993;-71
2023/01/07 06:15:36;;;;;;;8.27;5.67;;;;;;;1.79;88.20;96177.09;1795422;80;20982;-71
2023/01/07 06:18:03;;;;;;;8.33;5.77;;;;;;;1.78;88.09;96180.13;1795362;80;21030;-71
2023/01/07 06:20:33;;;;;;;8.50;5.97;;;;;;;1.70;87.49;96169.53;1795588;80;20951;-71
2023/01/07 06:22:58;;;;;;;7.87;5.80;;;;;;;1.76;88.20;96187.44;1795080;80;20983;-71
2023/01/07 06:25:24;;;;;;;11.67;7.07;;;;;;;1.83;88.53;96175.92;1795397;80;21497;-71
2023/01/07 06:27:51;;;;;;;9.10;6.03;;;;;;;1.85;88.29;96179.88;1795317;80;21041;-71
2023/01/07 06:30:18;;;;;;;9.10;6.23;;;;;;;1.89;88.47;96172.58;1795403;80;21011;-71
2023/01/07 06:32:45;;;;;;;8.93;6.33;;;;;;;1.91;88.07;96170.90;1795654;80;21515;-71
2023/01/07 06:35:11;;;;;;;10.33;6.57;;;;;;;1.95;88.33;96181.85;1795536;80;21058;-71
2023/01/07 06:37:38;;;;;;;12.00;7.23;;;;;;;1.98;87.76;96174.11;1795261;80;21037;-71
2023/01/07 06:40:07;;;;;;;8.73;6.67;;;;;;;1.94;87.41;96168.36;1795372;80;21041;-71
2023/01/07 06:42:34;;;;;;;15.00;8.70;;;;;;;1.97;87.98;96174.97;1795390;80;20998;-71
2023/01/07 06:45:00;;;;;;;10.60;7.77;;;;;;;2.06;88.36;96175.59;1795420;80;20995;-71
2023/01/07 06:47:27;;;;;;;8.43;6.07;;;;;;;2.05;88.08;96176.02;1795440;80;20974;-71
2023/01/07 06:49:53;;;;;;;10.67;6.73;;;;;;;2.08;88.18;96179.98;1795413;80;20987;-71
2023/01/07 06:52:20;;;;;;;8.93;6.60;;;;;;;2.10;88.14;96182.21;1795199;80;21005;-71
2023/01/07 06:54:47;;;;;;;10.37;6.90;;;;;;;2.10;87.58;96182.64;1795498;80;21030;-71
2023/01/07 06:57:13;;;;;;;12.30;8.47;;;;;;;2.09;87.98;96177.86;1795405;80;20997;-71
2023/01/07 06:59:40;;;;;;;16.90;11.93;;;;;;;2.13;87.97;96182.70;1795382;80;21003;-71
2023/01/07 07:02:06;;;;;;;15.27;10.83;;;;;;;2.14;87.71;96185.36;1795473;80;21433;-71
2023/01/07 07:04:32;;;;;;;13.03;9.87;;;;;;;2.12;87.58;96184.44;1795455;80;21003;-71
2023/01/07 07:06:59;;;;;;;10.50;7.27;;;;;;;2.12;87.33;96181.83;1795337;80;21476;-71
2023/01/07 07:09:26;;;;;;;12.60;6.70;;;;;;;2.06;87.08;96184.27;1795374;80;21049;-71
2023/01/07 07:11:52;;;;;;;12.43;7.70;;;;;;;2.02;86.81;96177.25;1795445;80;21472;-71
2023/01/07 07:14:19;;;;;;;9.67;7.37;;;;;;;2.01;87.29;96175.91;1795549;80;21524;-71
2023/01/07 07:16:48;;;;;;;13.90;9.50;;;;;;;2.05;87.70;96175.14;1795589;80;20987;-72
2023/01/07 07:19:14;;;;;;;43.03;23.10;;;;;;;2.03;88.25;96170.32;1795427;80;21005;-72
2023/01/07 07:21:40;;;;;;;23.37;14.27;;;;;;;2.07;88.22;96174.34;1795489;80;21544;-72
2023/01/07 07:24:07;;;;;;;17.83;11.73;;;;;;;2.14;88.33;96176.64;1794242;80;21039;-72
2023/01/07 07:26:33;;;;;;;15.63;10.03;;;;;;;2.16;88.37;96175.83;1787113;80;21015;-72
2023/01/07 07:29:00;;;;;;;14.57;9.87;;;;;;;2.23;88.77;96175.56;1787236;80;21524;-72
2023/01/07 07:31:26;;;;;;;17.23;11.33;;;;;;;2.34;89.05;96183.61;1787165;80;21517;-72
2023/01/07 07:33:53;;;;;;;18.83;12.20;;;;;;;2.40;88.80;96185.50;1787093;80;20975;-71
2023/01/07 07:36:20;;;;;;;23.20;15.10;;;;;;;2.38;88.01;96185.02;1787244;80;20998;-71
2023/01/07 07:38:46;;;;;;;25.03;16.20;;;;;;;2.36;87.80;96179.32;1787142;80;21528;-71
2023/01/07 07:41:13;;;;;;;20.10;12.57;;;;;;;2.44;88.32;96185.56;1787258;80;21026;-71
2023/01/07 07:43:39;;;;;;;13.40;9.40;;;;;;;2.44;88.05;96182.09;1787121;80;21461;-71
2023/01/07 07:46:06;;;;;;;16.83;10.77;;;;;;;2.48;88.47;96178.30;1787162;80;21035;-71
2023/01/07 07:48:33;;;;;;;14.57;10.80;;;;;;;2.48;88.05;96187.84;1787269;80;21540;-71
2023/01/07 07:50:59;;;;;;;16.27;10.40;;;;;;;2.47;88.06;96189.97;1787161;80;20990;-71
2023/01/07 07:53:26;;;;;;;9.93;7.60;;;;;;;2.48;88.37;96187.41;1787070;80;21066;-71
2023/01/07 07:55:52;;;;;;;9.90;7.13;;;;;;;2.54;88.57;96182.75;1787322;80;21018;-71
2023/01/07 07:58:20;;;;;;;10.73;7.80;;;;;;;2.61;88.33;96184.64;1787253;80;21496;-72
2023/01/07 08:00:46;;;;;;;12.27;8.40;;;;;;;2.67;88.27;96174.37;1787146;80;20975;-72
2023/01/07 08:03:13;;;;;;;11.47;8.40;;;;;;;2.78;88.57;96182.41;1787056;80;21489;-72
2023/01/07 08:05:42;;;;;;;244.60;122.47;;;;;;;2.85;88.17;96179.48;1787259;80;21007;-72
2023/01/07 08:08:12;;;;;;;131.93;64.33;;;;;;;2.89;88.14;96189.14;1786945;80;21053;-71
2023/01/07 08:10:40;;;;;;;60.37;34.53;;;;;;;2.91;87.82;96191.36;1787155;80;20987;-71
2023/01/07 08:13:08;;;;;;;47.40;28.53;;;;;;;2.93;87.90;96189.23;1787106;80;21489;-71
2023/01/07 08:15:35;;;;;;;28.83;19.23;;;;;;;2.99;88.10;96188.05;1787101;80;20966;-71
2023/01/07 08:18:08;;;;;;;11.57;8.37;;;;;;;3.12;88.56;96193.08;1787214;80;21003;-69
2023/01/07 08:20:36;;;;;;;12.35;10.82;;;;;;;3.18;88.04;96185.82;1787264;80;21058;-69
2023/01/07 08:23:04;;;;;;;46.23;37.13;;;;;;;3.16;87.56;96185.78;1787124;80;20959;-69
2023/01/07 08:25:33;;;;;;;13.50;10.17;;;;;;;3.20;87.57;96190.22;1792398;80;20982;-69
2023/01/07 08:28:00;;;;;;;26.20;22.87;;;;;;;3.27;87.81;96188.58;1796020;80;20967;-69
2023/01/07 08:30:29;;;;;;;15.03;11.97;;;;;;;3.39;88.10;96177.08;1795058;80;21039;-68
2023/01/07 08:32:57;;;;;;;12.47;8.73;;;;;;;3.58;88.31;96180.92;1795446;80;20978;-68
2023/01/07 08:35:23;;;;;;;12.67;9.40;;;;;;;3.71;87.94;96190.27;1795602;80;20998;-69
2023/01/07 08:37:50;;;;;;;19.77;13.20;;;;;;;3.76;87.92;96193.41;1794975;80;21030;-68
2023/01/07 08:40:17;;;;;;;21.57;15.70;;;;;;;3.75;87.61;96203.81;1795519;80;21022;-68
2023/01/07 08:42:44;;;;;;;19.23;11.60;;;;;;;3.68;87.53;96206.33;1795265;80;21066;-68
2023/01/07 08:45:11;;;;;;;17.80;10.33;;;;;;;3.48;87.78;96186.83;1795507;80;20987;-68
2023/01/07 08:47:38;;;;;;;22.03;13.67;;;;;;;3.22;88.21;96185.02;1795442;80;21520;-68
2023/01/07 08:50:06;;;;;;;19.43;12.10;;;;;;;3.17;88.57;96181.44;1795634;80;21007;-68
2023/01/07 08:52:32;;;;;;;12.37;8.90;;;;;;;3.18;88.26;96194.95;1795424;80;21793;-68
2023/01/07 08:54:59;;;;;;;10.13;7.63;;;;;;;3.20;88.99;96204.56;1795818;80;20959;-68
2023/01/07 08:57:25;;;;;;;9.47;6.80;;;;;;;3.26;89.42;96203.80;1795491;80;21004;-68
2023/01/07 08:59:52;;;;;;;9.17;6.60;;;;;;;3.33;89.09;96197.84;1795662;80;21006;-68
2023/01/07 09:02:19;;;;;;;9.57;6.20;;;;;;;3.39;88.97;96203.17;1795363;80;21010;-68
2023/01/07 09:04:46;;;;;;;8.00;5.47;;;;;;;3.49;88.90;96202.92;1795459;80;20994;-68
2023/01/07 09:07:12;;;;;;;10.57;7.43;;;;;;;3.49;88.72;96200.74;1795565;80;21030;-68
2023/01/07 09:09:41;;;;;;;13.70;9.07;;;;;;;3.36;87.97;96206.16;1795041;80;21072;-68
2023/01/07 09:12:08;;;;;;;12.10;8.27;;;;;;;3.33;88.12;96215.23;1795531;80;21010;-68
2023/01/07 09:14:34;;;;;;;8.97;6.63;;;;;;;3.33;88.86;96215.23;1795425;80;21009;-68
2023/01/07 09:17:01;;;;;;;7.27;6.00;;;;;;;3.38;89.52;96217.08;1795449;80;20979;-68
2023/01/07 09:19:27;;;;;;;13.10;8.23;;;;;;;3.47;89.41;96211.14;1795505;80;21010;-68
2023/01/07 09:21:55;;;;;;;17.17;9.80;;;;;;;3.55;88.84;96221.28;1795744;80;20998;-68
2023/01/07 09:24:22;;;;;;;94.57;44.33;;;;;;;3.58;88.85;96216.55;1794548;80;21018;-68
2023/01/07 09:26:48;;;;;;;97.50;43.77;;;;;;;3.67;89.25;96212.37;1787107;80;20971;-68
2023/01/07 09:29:15;;;;;;;75.17;34.73;;;;;;;3.78;89.37;96199.54;1787010;80;21051;-68
2023/01/07 09:31:42;;;;;;;13.63;8.77;;;;;;;3.88;89.12;96199.24;1786787;80;21094;-68
2023/01/07 09:34:08;;;;;;;11.67;9.80;;;;;;;3.99;89.16;96199.45;1786656;80;21050;-68
2023/01/07 09:36:35;;;;;;;8.17;5.77;;;;;;;3.99;88.40;96205.97;1787002;80;21018;-68
2023/01/07 09:39:01;;;;;;;8.13;6.80;;;;;;;3.87;88.08;96210.55;1786772;80;21461;-68
2023/01/07 09:41:57;;;;;;;8.57;6.57;;;;;;;3.84;87.95;96206.59;1787458;80;20998;-67
2023/01/07 09:44:55;;;;;;;9.33;5.50;;;;;;;3.84;88.30;96201.37;1726542;80;21039;-69
2023/01/07 09:47:25;;;;;;;8.83;5.60;;;;;;;3.88;88.67;96200.15;1786784;80;21006;-69
2023/01/07 09:49:57;;;;;;;7.73;5.57;;;;;;;4.03;89.01;96187.78;1787377;80;21015;-69
2023/01/07 09:52:38;;;;;;;9.63;5.77;;;;;;;4.12;88.71;96197.48;1787271;80;21027;-67
2023/01/07 09:55:19;;;;;;;7.67;5.20;;;;;;;4.12;88.37;96202.27;1787120;80;21007;-69
2023/01/07 09:57:46;;;;;;;7.57;6.00;;;;;;;4.12;88.05;96194.43;1787171;80;21049;-68
2023/01/07 10:00:22;;;;;;;7.77;6.13;;;;;;;4.07;87.66;96197.83;1787174;80;21010;-67
2023/01/07 10:03:03;;;;;;;8.20;6.53;;;;;;;4.04;87.79;96193.88;1786798;80;21517;-67
2023/01/07 10:05:50;;;;;;;8.23;6.00;;;;;;;4.04;88.07;96186.91;1786205;80;21023;-70
2023/01/07 10:08:37;;;;;;;12.50;6.53;;;;;;;4.05;88.16;96187.78;1772066;80;21497;-69
2023/01/07 10:11:44;;;;;;;8.20;6.33;;;;;;;4.06;88.33;96192.17;1786271;80;21031;-70
2023/01/07 10:14:39;;;;;;;8.37;5.70;;;;;;;4.20;89.01;96186.72;1786729;80;21715;-71
2023/01/07 10:17:48;;;;;;;9.65;6.40;;;;;;;4.26;87.61;96187.27;1786609;80;21481;-71
2023/01/07 10:20:26;;;;;;;10.67;6.50;;;;;;;4.23;87.78;96181.97;1786790;80;20987;-70
2023/01/07 10:23:15;;;;;;;8.27;6.27;;;;;;;4.23;88.29;96182.84;1786875;80;21575;-71
2023/01/07 10:25:47;;;;;;;9.17;6.00;;;;;;;4.26;88.16;96183.34;1787018;80;21018;-70
2023/01/07 10:28:31;;;;;;;9.03;5.73;;;;;;;4.23;87.53;96188.50;1786523;80;21492;-68
2023/01/07 10:30:59;;;;;;;10.13;6.27;;;;;;;4.24;87.53;96188.97;1768185;80;21102;-68
2023/01/07 10:33:30;;;;;;;6.67;5.63;;;;;;;4.32;87.72;96178.20;1787183;80;21015;-69
2023/01/07 10:36:11;;;;;;;8.97;6.13;;;;;;;4.44;88.06;96180.13;1787131;80;21015;-69
2023/01/07 10:38:41;;;;;;;9.20;6.13;;;;;;;4.60;88.38;96169.45;1779951;80;21007;-69
2023/01/07 10:41:13;;;;;;;8.93;5.77;;;;;;;4.77;87.53;96168.81;1787107;80;21022;-68
2023/01/07 10:44:09;;;;;;;9.60;6.20;;;;;;;4.97;88.11;96163.84;1785364;80;21039;-69
2023/01/07 10:47:05;;;;;;;9.53;6.63;;;;;;;5.35;87.69;96158.16;1786386;80;21026;-68
2023/01/07 10:50:21;;;;;;;9.07;7.20;;;;;;;5.28;84.60;96154.16;1755320;82;21023;-70
2023/01/07 10:53:14;;;;;;;9.50;6.37;;;;;;;5.08;84.61;96161.34;1751136;82;21014;-70
2023/01/07 10:55:59;;;;;;;10.80;6.70;;;;;;;5.13;85.94;96154.86;1783269;80;20998;-68
2023/01/07 10:58:31;;;;;;;8.67;6.17;;;;;;;5.23;86.01;96154.10;1786268;80;21007;-67
2023/01/07 11:00:58;;;;;;;8.53;5.97;;;;;;;5.33;86.30;96155.95;1787305;80;21489;-67
2023/01/07 11:03:25;;;;;;;7.13;5.73;;;;;;;5.44;86.32;96146.90;1787089;80;20975;-67
2023/01/07 11:06:00;;;;;;;7.87;5.83;;;;;;;5.57;85.69;96138.33;1787216;80;21047;-68
2023/01/07 11:08:39;;;;;;;7.33;5.77;;;;;;;5.54;85.05;96134.34;1785961;80;21038;-67
2023/01/07 11:11:15;;;;;;;8.40;6.10;;;;;;;5.52;85.04;96125.62;1787186;80;21540;-67
2023/01/07 11:14:01;;;;;;;8.43;5.87;;;;;;;5.56;85.49;96126.52;1787322;80;20992;-67
2023/01/07 11:16:36;;;;;;;7.90;5.80;;;;;;;5.49;84.83;96126.02;1787154;80;21034;-67
2023/01/07 11:19:10;;;;;;;10.40;6.77;;;;;;;5.48;85.09;96119.91;1787135;80;21018;-68
2023/01/07 11:21:43;;;;;;;8.53;6.27;;;;;;;5.59;85.38;96116.07;1787297;80;21003;-67
2023/01/07 11:24:28;;;;;;;7.47;6.40;;;;;;;5.69;85.48;96114.42;1787069;80;21481;-68
2023/01/07 11:27:06;;;;;;;9.03;6.40;;;;;;;5.72;84.86;96119.27;1794344;80;21023;-68
2023/01/07 11:29:47;;;;;;;10.00;7.13;;;;;;;5.67;84.90;96109.59;1795537;80;21014;-68
2023/01/07 11:32:31;;;;;;;14.23;9.33;;;;;;;5.58;84.26;96106.04;1792556;80;20994;-68
2023/01/07 11:35:05;;;;;;;9.63;7.15;;;;;;;5.73;84.94;96109.22;1796104;80;21053;-68
2023/01/07 11:37:39;;;;;;;10.30;7.03;;;;;;;5.72;84.24;96102.25;1795764;80;20990;-68
2023/01/07 11:40:18;;;;;;;9.40;7.03;;;;;;;5.76;84.59;96102.70;1795272;80;21011;-69
2023/01/07 11:43:22;;;;;;;8.53;6.57;;;;;;;5.91;85.04;96104.56;1795513;80;21010;-69
2023/01/07 11:45:52;;;;;;;;;;;;;;;6.04;84.46;96095.95;1798101;80;21026;-69
2023/01/07 11:48:29;;;;;;;9.13;7.03;;;;;;;5.94;83.15;96100.69;1795614;80;20111;-69
2023/01/07 11:51:00;;;;;;;11.00;8.10;;;;;;;5.81;83.45;96098.37;1795486;80;20987;-69
2023/01/07 11:53:50;;;;;;;10.53;7.77;;;;;;;5.77;83.95;96094.00;1764520;80;20991;-70
2023/01/07 11:56:32;;;;;;;9.93;6.97;;;;;;;5.67;83.69;96093.48;1795511;80;21014;-69
2023/01/07 11:59:19;;;;;;;9.57;7.20;;;;;;;5.49;83.92;96091.55;1795732;80;21026;-69